Time;durP1;ratioP1;P1;durP2;ratioP2;P2;SDS_P1;SDS_P2;PMS_P1;PMS_P2;Temp;Humidity;BMP_temperature;BMP_pressure;BME280_temperature;BME280_humidity;BME280_pressure;Samples;Min_cycle;Max_cycle;Signal;HPM_P1;HPM_P2
2023/05/08 00:00:58;;;;;;;3.22;2.92;;;14.90;99.90;;;;;;5026985;28;20034;-76
2023/05/08 00:03:24;;;;;;;3.33;3.03;;;14.90;99.90;;;;;;5014106;28;20711;-76
2023/05/08 00:05:49;;;;;;;3.00;2.70;;;15.00;99.90;;;;;;5016364;28;20045;-75
2023/05/08 00:08:15;;;;;;;4.30;2.80;;;15.00;99.90;;;;;;5015970;28;20034;-76
2023/05/08 00:10:40;;;;;;;4.97;3.33;;;15.00;99.90;;;;;;5014920;28;20033;-75
2023/05/08 00:13:06;;;;;;;3.42;3.13;;;15.10;99.90;;;;;;5013138;28;20076;-76
2023/05/08 00:15:32;;;;;;;4.70;2.88;;;15.10;99.90;;;;;;5016217;28;20105;-76
2023/05/08 00:17:58;;;;;;;3.85;2.80;;;15.10;99.90;;;;;;5016154;28;20037;-77
2023/05/08 00:20:23;;;;;;;3.50;2.95;;;15.10;99.90;;;;;;5013476;28;20042;-78
2023/05/08 00:22:49;;;;;;;4.82;3.40;;;15.10;99.90;;;;;;5015342;28;20034;-75
2023/05/08 00:25:15;;;;;;;4.32;3.25;;;15.10;99.90;;;;;;5011189;28;20030;-75
2023/05/08 00:27:40;;;;;;;4.38;3.22;;;15.10;99.90;;;;;;5012848;28;20065;-75
2023/05/08 00:30:06;;;;;;;3.30;3.00;;;15.20;99.90;;;;;;5016166;28;20061;-76
2023/05/08 00:32:32;;;;;;;4.85;3.03;;;15.10;99.90;;;;;;5015358;28;20034;-74
2023/05/08 00:34:58;;;;;;;3.92;3.35;;;15.20;99.90;;;;;;5013998;28;20033;-75
2023/05/08 00:37:23;;;;;;;5.07;3.70;;;15.10;99.90;;;;;;5012980;28;20076;-75
2023/05/08 00:39:49;;;;;;;4.22;3.38;;;15.10;99.90;;;;;;5014110;28;20045;-77
2023/05/08 00:42:14;;;;;;;3.58;3.20;;;15.10;99.90;;;;;;5013171;28;20040;-75
2023/05/08 00:44:40;;;;;;;4.65;3.47;;;15.00;99.90;;;;;;5012767;28;20044;-73
2023/05/08 00:47:07;;;;;;;4.00;3.58;;;15.00;99.90;;;;;;5015219;28;20108;-74
2023/05/08 00:49:34;;;;;;;3.95;3.20;;;15.00;99.90;;;;;;5012285;28;20030;-75
2023/05/08 00:52:02;;;;;;;4.00;3.60;;;15.10;99.90;;;;;;5009632;28;20809;-74
2023/05/08 00:54:29;;;;;;;4.55;3.75;;;15.00;99.90;;;;;;5013851;28;20327;-74
2023/05/08 00:56:55;;;;;;;4.20;3.78;;;15.00;99.90;;;;;;5012850;28;20037;-76
2023/05/08 00:59:23;;;;;;;4.32;3.58;;;15.00;99.90;;;;;;5012743;28;20484;-74
2023/05/08 01:01:50;;;;;;;4.30;3.55;;;14.90;99.90;;;;;;5010000;28;20486;-74
2023/05/08 01:04:20;;;;;;;3.78;3.35;;;14.90;99.90;;;;;;5012174;28;20034;-74
2023/05/08 01:06:46;;;;;;;4.07;3.40;;;14.90;99.90;;;;;;5008224;28;20022;-73
2023/05/08 01:09:11;;;;;;;4.45;3.42;;;14.90;99.90;;;;;;5011250;28;20030;-74
2023/05/08 01:12:16;;;;;;;5.78;3.40;;;14.80;99.90;;;;;;5010465;28;20156;-74
2023/05/08 01:15:05;;;;;;;5.15;3.58;;;14.70;99.90;;;;;;4978868;28;20057;-73
2023/05/08 01:17:37;;;;;;;6.22;3.25;;;14.60;99.90;;;;;;5012452;28;20037;-74
2023/05/08 01:20:03;;;;;;;3.72;3.38;;;14.60;99.90;;;;;;5010165;28;20144;-74
2023/05/08 01:22:31;;;;;;;5.30;3.78;;;14.60;99.90;;;;;;5009333;28;20058;-75
2023/05/08 01:25:21;;;;;;;4.53;3.90;;;14.60;99.90;;;;;;5005012;28;20034;-76
2023/05/08 01:28:06;;;;;;;6.80;3.67;;;14.70;99.90;;;;;;5009740;28;20036;-74
2023/05/08 01:30:37;;;;;;;4.53;4.10;;;14.70;99.90;;;;;;5009567;28;20156;-75
2023/05/08 01:33:16;;;;;;;4.88;3.85;;;14.70;99.90;;;;;;5008495;28;20037;-74
2023/05/08 01:35:49;;;;;;;7.05;3.95;;;14.70;99.90;;;;;;5003966;28;20038;-77
2023/05/08 01:38:31;;;;;;;5.90;4.90;;;14.80;99.90;;;;;;5008740;28;20393;-74
2023/05/08 01:41:07;;;;;;;4.93;4.07;;;14.80;99.90;;;;;;5007125;28;20489;-75
2023/05/08 01:43:45;;;;;;;5.70;4.85;;;14.70;99.90;;;;;;5008198;28;20048;-75
2023/05/08 01:46:17;;;;;;;4.93;4.07;;;14.70;99.90;;;;;;5008741;28;20029;-75
2023/05/08 01:48:48;;;;;;;5.00;4.03;;;14.70;99.90;;;;;;5012180;28;20126;-74
2023/05/08 01:51:21;;;;;;;5.35;3.95;;;14.70;99.90;;;;;;5007903;28;20036;-74
2023/05/08 01:53:51;;;;;;;6.47;4.72;;;14.70;99.90;;;;;;5007192;28;20041;-75
2023/05/08 01:56:21;;;;;;;6.78;4.30;;;14.70;99.90;;;;;;5009463;28;20058;-74
2023/05/08 01:58:50;;;;;;;7.32;4.10;;;14.80;99.90;;;;;;5007818;28;20700;-75
2023/05/08 02:01:19;;;;;;;8.98;5.18;;;14.80;99.90;;;;;;5008940;28;20097;-74
2023/05/08 02:03:47;;;;;;;7.32;4.28;;;14.80;99.90;;;;;;5008342;28;20044;-75
2023/05/08 02:06:16;;;;;;;8.88;5.00;;;14.80;99.90;;;;;;5009423;28;20057;-74
2023/05/08 02:08:43;;;;;;;5.10;4.22;;;14.80;99.90;;;;;;5011051;28;20021;-73
2023/05/08 02:11:11;;;;;;;5.63;4.70;;;14.80;99.90;;;;;;5011071;28;20037;-74
2023/05/08 02:13:39;;;;;;;5.25;4.03;;;14.80;99.90;;;;;;5006705;28;20437;-75
2023/05/08 02:16:07;;;;;;;6.13;4.35;;;14.80;99.90;;;;;;5008186;28;20429;-75
2023/05/08 02:18:34;;;;;;;4.95;4.10;;;14.70;99.90;;;;;;5011814;28;20665;-74
2023/05/08 02:21:02;;;;;;;6.30;4.45;;;14.70;99.90;;;;;;5009046;28;20122;-75
2023/05/08 02:23:30;;;;;;;5.45;4.50;;;14.70;99.90;;;;;;5010449;28;20050;-75
2023/05/08 02:25:56;;;;;;;5.90;4.35;;;14.70;99.90;;;;;;5006735;28;20045;-75
2023/05/08 02:28:23;;;;;;;6.55;4.93;;;14.50;99.90;;;;;;5009503;28;20038;-74
2023/05/08 02:30:50;;;;;;;5.95;4.80;;;14.40;99.90;;;;;;5004896;28;20030;-75
2023/05/08 02:33:17;;;;;;;6.90;5.05;;;14.20;99.90;;;;;;5006822;28;20665;-75
2023/05/08 02:35:44;;;;;;;7.18;5.55;;;14.00;99.90;;;;;;5007642;28;20045;-76
2023/05/08 02:38:11;;;;;;;8.65;6.00;;;14.00;99.90;;;;;;5011861;28;20060;-75
2023/05/08 02:40:40;;;;;;;6.60;5.50;;;13.90;99.90;;;;;;5011541;28;20483;-75
2023/05/08 02:43:06;;;;;;;6.93;5.57;;;13.80;99.90;;;;;;5009223;28;20041;-75
2023/05/08 02:45:47;;;;;;;8.25;6.10;;;13.80;99.90;;;;;;5008953;28;20033;-75
2023/05/08 02:48:51;;;;;;;7.03;5.45;;;13.80;99.90;;;;;;5009877;28;20058;-73
2023/05/08 02:51:36;;;;;;;9.48;6.55;;;13.70;99.90;;;;;;5010873;28;20052;-74
2023/05/08 02:54:13;;;;;;;8.35;6.25;;;13.60;99.90;;;;;;5011873;28;20034;-74
2023/05/08 02:57:00;;;;;;;8.43;6.53;;;13.50;99.90;;;;;;5014022;28;20037;-74
2023/05/08 02:59:40;;;;;;;9.18;6.30;;;13.50;99.90;;;;;;5013151;28;20026;-75
2023/05/08 03:02:16;;;;;;;8.05;6.10;;;13.60;99.90;;;;;;5011858;28;20045;-75
2023/05/08 03:04:58;;;;;;;9.23;6.63;;;13.80;99.90;;;;;;5013062;28;20037;-75
2023/05/08 03:07:26;;;;;;;11.15;6.82;;;13.90;99.90;;;;;;5008754;28;20041;-75
2023/05/08 03:10:01;;;;;;;9.48;6.88;;;13.90;99.90;;;;;;5013159;28;20037;-74
2023/05/08 03:12:29;;;;;;;7.10;6.30;;;13.80;99.90;;;;;;5009688;28;20464;-75
2023/05/08 03:15:11;;;;;;;7.45;6.13;;;13.80;99.90;;;;;;5011155;28;20037;-75
2023/05/08 03:17:39;;;;;;;7.85;6.05;;;13.80;99.90;;;;;;5013431;28;20057;-75
2023/05/08 03:20:08;;;;;;;8.02;6.40;;;13.70;99.90;;;;;;5011897;28;20056;-75
2023/05/08 03:22:36;;;;;;;9.35;6.93;;;13.60;99.90;;;;;;5013478;28;20076;-74
2023/05/08 03:25:05;;;;;;;11.07;6.50;;;13.40;99.90;;;;;;5013391;28;20030;-74
2023/05/08 03:27:31;;;;;;;10.75;6.88;;;13.30;99.90;;;;;;5007737;28;20456;-75
2023/05/08 03:30:00;;;;;;;9.85;6.85;;;13.20;99.90;;;;;;5009527;28;20375;-75
2023/05/08 03:32:27;;;;;;;10.48;7.05;;;13.20;99.90;;;;;;5014117;28;20060;-75
2023/05/08 03:34:54;;;;;;;11.48;7.60;;;13.00;99.90;;;;;;5010232;28;21199;-75
2023/05/08 03:37:20;;;;;;;9.82;7.07;;;13.00;99.90;;;;;;5014353;28;20033;-74
2023/05/08 03:39:46;;;;;;;11.10;6.80;;;12.90;99.90;;;;;;5009490;28;20065;-74
2023/05/08 03:42:20;;;;;;;10.55;7.43;;;12.90;99.90;;;;;;5008031;28;20102;-74
2023/05/08 03:44:51;;;;;;;10.57;7.13;;;12.90;99.90;;;;;;5012504;28;20124;-74
2023/05/08 03:47:20;;;;;;;10.07;6.78;;;12.80;99.90;;;;;;5011452;28;20026;-74
2023/05/08 03:49:48;;;;;;;11.32;7.40;;;13.00;99.90;;;;;;5009230;28;20037;-74
2023/05/08 03:52:14;;;;;;;10.80;7.25;;;12.90;99.90;;;;;;5009981;28;20080;-75
2023/05/08 03:54:40;;;;;;;10.82;7.70;;;12.90;99.90;;;;;;5009030;28;20038;-75
2023/05/08 03:57:06;;;;;;;11.35;6.90;;;13.00;99.90;;;;;;5011742;28;20464;-74
2023/05/08 03:59:34;;;;;;;11.45;7.13;;;13.10;99.90;;;;;;5011413;28;20026;-75
2023/05/08 04:02:19;;;;;;;8.32;6.25;;;13.20;99.90;;;;;;5008691;28;20046;-75
2023/05/08 04:04:49;;;;;;;10.63;6.70;;;13.20;99.90;;;;;;5009750;28;20050;-74
2023/05/08 04:07:26;;;;;;;9.02;6.45;;;13.20;99.90;;;;;;5011089;28;20691;-74
2023/05/08 04:10:05;;;;;;;10.38;6.85;;;13.20;99.90;;;;;;5010528;28;20049;-75
2023/05/08 04:13:07;;;;;;;9.55;6.43;;;13.20;99.90;;;;;;5006843;28;20532;-73
2023/05/08 04:15:37;;;;;;;9.57;6.97;;;13.10;99.90;;;;;;5007769;28;20118;-74
2023/05/08 04:18:11;;;;;;;9.98;7.05;;;13.00;99.90;;;;;;5008340;28;20038;-74
2023/05/08 04:20:40;;;;;;;10.65;7.55;;;13.00;99.90;;;;;;5010477;28;20555;-74
2023/05/08 04:23:07;;;;;;;12.30;7.80;;;13.00;99.90;;;;;;5009078;28;20030;-74
2023/05/08 04:25:36;;;;;;;9.93;6.80;;;12.90;99.90;;;;;;5011831;28;20108;-74
2023/05/08 04:28:03;;;;;;;10.05;6.85;;;13.00;99.90;;;;;;5008456;28;20076;-74
2023/05/08 04:30:29;;;;;;;11.88;6.45;;;12.90;99.90;;;;;;5007722;28;20033;-74
2023/05/08 04:32:55;;;;;;;12.65;7.43;;;12.90;99.90;;;;;;5008458;28;20089;-74
2023/05/08 04:35:21;;;;;;;12.65;7.78;;;12.80;99.90;;;;;;5009771;28;20096;-74
2023/05/08 04:37:50;;;;;;;10.27;7.55;;;12.80;99.90;;;;;;5011067;28;20025;-74
2023/05/08 04:40:15;;;;;;;11.30;7.70;;;12.90;99.90;;;;;;5010489;28;20038;-73
2023/05/08 04:42:42;;;;;;;9.55;7.38;;;12.90;99.90;;;;;;5005165;28;20037;-74
2023/05/08 04:45:09;;;;;;;11.10;7.15;;;12.90;99.90;;;;;;5010095;28;20501;-75
2023/05/08 04:47:34;;;;;;;11.85;7.80;;;12.80;99.90;;;;;;5010815;28;20405;-74
2023/05/08 04:50:00;;;;;;;11.43;7.65;;;12.80;99.90;;;;;;5010512;28;20100;-75
2023/05/08 04:52:26;;;;;;;9.98;7.30;;;12.70;99.90;;;;;;5011742;28;20053;-74
2023/05/08 04:54:51;;;;;;;10.20;7.05;;;12.70;99.90;;;;;;5009113;28;20050;-74
2023/05/08 04:57:17;;;;;;;10.50;7.43;;;12.70;99.90;;;;;;5021740;28;20084;-74
2023/05/08 04:59:43;;;;;;;11.30;7.15;;;12.70;99.90;;;;;;5007429;28;20036;-74
2023/05/08 05:02:08;;;;;;;10.20;6.95;;;12.70;99.90;;;;;;5008209;28;20054;-73
2023/05/08 05:04:35;;;;;;;11.35;7.20;;;12.70;99.90;;;;;;5010115;28;20485;-74
2023/05/08 05:07:01;;;;;;;11.38;7.78;;;12.80;99.90;;;;;;5007714;28;20034;-73
2023/05/08 05:09:27;;;;;;;10.60;6.55;;;12.80;99.90;;;;;;5008448;28;20029;-74
2023/05/08 05:11:53;;;;;;;12.55;7.15;;;12.80;99.90;;;;;;5008337;28;20040;-72
2023/05/08 05:14:19;;;;;;;11.63;7.40;;;12.80;99.90;;;;;;5009624;28;20260;-73
2023/05/08 05:16:45;;;;;;;11.88;7.53;;;12.80;99.90;;;;;;5025680;28;20459;-73
2023/05/08 05:19:10;;;;;;;14.20;8.30;;;12.70;99.90;;;;;;5009100;28;20030;-71
2023/05/08 05:21:39;;;;;;;12.02;7.72;;;12.70;99.90;;;;;;5006278;28;20088;-73
2023/05/08 05:24:05;;;;;;;11.32;7.57;;;12.60;99.90;;;;;;5006835;28;20043;-73
2023/05/08 05:26:31;;;;;;;13.35;7.47;;;12.60;99.90;;;;;;5006732;28;20030;-73
2023/05/08 05:28:57;;;;;;;11.32;8.38;;;12.50;99.90;;;;;;5007898;28;20034;-73
2023/05/08 05:31:23;;;;;;;10.00;7.00;;;12.60;99.90;;;;;;5004183;28;20375;-72
2023/05/08 05:33:48;;;;;;;10.93;7.57;;;12.60;99.90;;;;;;5006462;28;20060;-72
2023/05/08 05:36:14;;;;;;;13.13;8.20;;;12.60;99.90;;;;;;5005511;28;20103;-74
2023/05/08 05:38:40;;;;;;;11.68;7.53;;;12.60;99.90;;;;;;5005996;28;20226;-74
2023/05/08 05:41:05;;;;;;;13.48;7.63;;;12.50;99.90;;;;;;5007181;28;20037;-73
2023/05/08 05:43:32;;;;;;;13.27;8.32;;;12.50;99.90;;;;;;5009156;28;20088;-74
2023/05/08 05:46:06;;;;;;;12.50;7.72;;;12.50;99.90;;;;;;5006998;28;20026;-73
2023/05/08 05:48:32;;;;;;;12.65;7.45;;;12.50;99.90;;;;;;5007619;28;20026;-73
2023/05/08 05:50:57;;;;;;;10.90;7.78;;;12.50;99.90;;;;;;5010049;28;20560;-74
2023/05/08 05:53:23;;;;;;;11.00;7.50;;;12.50;99.90;;;;;;5007886;28;20112;-73
2023/05/08 05:55:49;;;;;;;10.68;7.60;;;12.50;99.90;;;;;;5007939;28;20144;-74
2023/05/08 05:58:15;;;;;;;12.20;8.80;;;12.50;99.90;;;;;;5010801;28;20026;-73
2023/05/08 06:00:44;;;;;;;9.70;7.07;;;12.60;99.90;;;;;;5007799;28;20041;-73
2023/05/08 06:03:10;;;;;;;12.20;7.35;;;12.60;99.90;;;;;;5009889;28;20069;-74
2023/05/08 06:05:36;;;;;;;11.45;7.40;;;12.60;99.90;;;;;;5007814;28;20037;-74
2023/05/08 06:08:02;;;;;;;12.00;7.53;;;12.70;99.90;;;;;;5009952;28;20026;-75
2023/05/08 06:10:28;;;;;;;11.70;7.85;;;12.60;99.90;;;;;;5008384;28;20029;-73
2023/05/08 06:12:53;;;;;;;11.23;7.90;;;12.70;99.90;;;;;;5008615;28;20141;-74
2023/05/08 06:15:20;;;;;;;12.77;8.10;;;12.70;99.90;;;;;;5005881;28;20038;-73
2023/05/08 06:17:45;;;;;;;12.75;7.93;;;12.70;99.90;;;;;;5010610;28;20185;-74
2023/05/08 06:20:11;;;;;;;11.50;7.82;;;12.80;99.90;;;;;;5007242;28;20065;-74
2023/05/08 06:22:38;;;;;;;12.05;8.00;;;12.70;99.90;;;;;;5016632;28;20037;-74
2023/05/08 06:25:05;;;;;;;13.40;8.95;;;12.60;99.90;;;;;;5012214;28;20042;-74
2023/05/08 06:27:33;;;;;;;14.55;7.93;;;12.60;99.90;;;;;;5006568;28;20022;-74
2023/05/08 06:29:58;;;;;;;12.05;7.85;;;12.60;99.90;;;;;;5008218;28;20041;-74
2023/05/08 06:32:24;;;;;;;13.60;8.57;;;12.70;99.90;;;;;;5009024;28;20037;-74
2023/05/08 06:34:49;;;;;;;13.05;7.93;;;12.70;99.90;;;;;;5012242;28;20083;-74
2023/05/08 06:37:15;;;;;;;12.07;8.05;;;12.70;99.90;;;;;;5014360;28;20046;-74
2023/05/08 06:39:40;;;;;;;11.95;8.07;;;12.70;99.90;;;;;;5015161;28;20041;-73
2023/05/08 06:42:06;;;;;;;15.18;9.20;;;12.60;99.90;;;;;;5011916;28;20038;-74
2023/05/08 06:44:32;;;;;;;12.63;7.95;;;12.60;99.90;;;;;;5014791;28;20030;-74
2023/05/08 06:46:58;;;;;;;11.80;8.65;;;12.60;99.90;;;;;;5012145;28;20397;-74
2023/05/08 06:49:23;;;;;;;12.55;8.57;;;12.60;99.90;;;;;;5011935;28;20572;-74
2023/05/08 06:51:49;;;;;;;12.55;8.60;;;12.50;99.90;;;;;;5010195;28;20069;-74
2023/05/08 06:54:15;;;;;;;11.77;8.40;;;12.50;99.90;;;;;;5014958;28;20029;-73
2023/05/08 06:56:40;;;;;;;13.40;8.73;;;12.50;99.90;;;;;;5012229;28;20110;-74
2023/05/08 06:59:06;;;;;;;12.85;8.38;;;12.40;99.90;;;;;;5012889;28;20508;-74
2023/05/08 07:01:32;;;;;;;14.30;8.93;;;12.50;99.90;;;;;;5009535;28;20030;-77
2023/05/08 07:03:58;;;;;;;13.38;8.32;;;12.50;99.90;;;;;;5005201;28;20058;-74
2023/05/08 07:06:23;;;;;;;13.50;8.43;;;12.50;99.90;;;;;;5008496;28;20030;-74
2023/05/08 07:08:49;;;;;;;11.90;8.45;;;12.50;99.90;;;;;;5012485;28;20029;-74
2023/05/08 07:11:15;;;;;;;12.82;8.75;;;12.50;99.90;;;;;;5011531;28;20030;-74
2023/05/08 07:13:44;;;;;;;12.63;9.20;;;12.60;99.90;;;;;;5008122;28;20453;-74
2023/05/08 07:16:11;;;;;;;12.02;8.88;;;12.60;99.90;;;;;;5010336;28;20037;-74
2023/05/08 07:18:36;;;;;;;13.55;8.90;;;12.60;99.90;;;;;;5012325;28;20072;-74
2023/05/08 07:21:02;;;;;;;12.73;9.20;;;12.70;99.90;;;;;;5013564;28;20065;-74
2023/05/08 07:23:28;;;;;;;11.95;8.80;;;12.70;99.90;;;;;;5015068;28;20079;-74
2023/05/08 07:25:54;;;;;;;14.13;9.13;;;12.70;99.90;;;;;;5012541;28;20042;-74
2023/05/08 07:28:20;;;;;;;13.35;8.32;;;12.70;99.90;;;;;;5011518;28;20041;-74
2023/05/08 07:30:45;;;;;;;13.60;9.32;;;12.80;99.90;;;;;;5011093;28;20029;-75
2023/05/08 07:33:11;;;;;;;14.20;9.15;;;12.80;99.90;;;;;;5007570;28;20557;-74
2023/05/08 07:35:40;;;;;;;13.70;8.95;;;12.80;99.90;;;;;;5010418;28;20045;-75
2023/05/08 07:38:06;;;;;;;14.00;9.07;;;12.80;99.90;;;;;;5011644;28;20141;-74
2023/05/08 07:40:32;;;;;;;13.63;9.45;;;12.80;99.90;;;;;;5010407;28;20561;-74
2023/05/08 07:42:57;;;;;;;11.98;8.73;;;12.70;99.90;;;;;;5012025;28;20038;-74
2023/05/08 07:45:23;;;;;;;13.60;8.55;;;12.80;99.90;;;;;;5004431;28;20106;-75
2023/05/08 07:47:54;;;;;;;13.80;9.43;;;12.80;99.90;;;;;;5011505;28;20069;-75
2023/05/08 07:50:21;;;;;;;14.15;8.80;;;12.80;99.90;;;;;;5010223;28;20037;-74
2023/05/08 07:52:47;;;;;;;12.73;8.55;;;12.80;99.90;;;;;;5010453;28;20041;-74
2023/05/08 07:55:13;;;;;;;15.82;10.15;;;12.90;99.90;;;;;;5011184;28;20025;-75
2023/05/08 07:57:40;;;;;;;13.23;8.75;;;12.90;99.90;;;;;;5011735;28;20060;-75
2023/05/08 08:00:08;;;;;;;15.00;9.25;;;12.80;99.90;;;;;;5010928;28;20033;-75
2023/05/08 08:02:33;;;;;;;16.02;9.57;;;12.70;99.90;;;;;;5011654;28;20049;-74
2023/05/08 08:04:59;;;;;;;14.40;9.18;;;12.70;99.90;;;;;;5012384;28;20545;-74
2023/05/08 08:07:25;;;;;;;13.50;8.80;;;12.60;99.90;;;;;;5010116;28;20042;-75
2023/05/08 08:09:50;;;;;;;12.02;8.27;;;12.50;99.90;;;;;;5010313;28;20505;-74
2023/05/08 08:12:16;;;;;;;11.70;8.65;;;12.50;99.90;;;;;;5011401;28;20072;-76
2023/05/08 08:14:42;;;;;;;12.93;8.98;;;12.50;99.90;;;;;;5010612;28;20496;-75
2023/05/08 08:17:07;;;;;;;14.93;9.13;;;12.40;99.90;;;;;;5010580;28;20040;-74
2023/05/08 08:19:33;;;;;;;14.00;8.55;;;12.50;99.90;;;;;;5010398;28;20089;-74
2023/05/08 08:21:59;;;;;;;14.75;9.43;;;12.50;99.90;;;;;;5027177;28;20030;-74
2023/05/08 08:24:25;;;;;;;14.18;8.32;;;12.50;99.90;;;;;;5029021;28;20138;-74
2023/05/08 08:26:51;;;;;;;13.15;8.43;;;12.60;99.90;;;;;;5025443;28;20034;-75
2023/05/08 08:29:16;;;;;;;13.73;8.77;;;12.60;99.90;;;;;;5010804;28;20022;-74
2023/05/08 08:31:42;;;;;;;15.38;9.20;;;12.50;99.90;;;;;;5009992;28;20053;-75
2023/05/08 08:34:07;;;;;;;13.73;9.40;;;12.40;99.90;;;;;;5009774;28;20037;-74
2023/05/08 08:36:33;;;;;;;13.40;9.02;;;12.40;99.90;;;;;;5008157;28;20037;-75
2023/05/08 08:38:59;;;;;;;14.20;9.50;;;12.40;99.90;;;;;;5007729;28;20586;-74
2023/05/08 08:41:26;;;;;;;16.35;9.48;;;12.40;99.90;;;;;;5007161;28;20242;-74
2023/05/08 08:43:54;;;;;;;11.65;8.32;;;12.40;99.90;;;;;;5005677;28;20067;-74
2023/05/08 08:46:23;;;;;;;14.70;9.40;;;12.40;99.90;;;;;;5010925;28;20176;-74
2023/05/08 08:48:52;;;;;;;13.15;8.68;;;12.40;99.90;;;;;;5012440;28;20037;-75
2023/05/08 08:51:23;;;;;;;;;;;12.50;99.90;;;;;;5008457;28;20037;-75
2023/05/08 08:54:01;;;;;;;12.50;7.80;;;12.50;99.90;;;;;;5013061;28;19913;-75
2023/05/08 08:56:28;;;;;;;13.68;8.75;;;12.60;99.90;;;;;;5009486;28;20089;-75
2023/05/08 08:58:58;;;;;;;14.32;8.88;;;12.60;99.90;;;;;;5009715;28;20030;-75
2023/05/08 09:01:24;;;;;;;13.82;9.02;;;12.80;99.90;;;;;;5007517;28;20061;-77
2023/05/08 09:03:51;;;;;;;15.40;9.35;;;12.90;99.90;;;;;;5007666;28;20286;-74
2023/05/08 09:06:18;;;;;;;15.45;9.23;;;12.90;99.90;;;;;;5009772;28;20022;-75
2023/05/08 09:08:43;;;;;;;13.75;9.27;;;13.10;99.90;;;;;;5011412;28;20037;-75
2023/05/08 09:11:09;;;;;;;15.02;9.00;;;13.10;99.90;;;;;;5008951;28;20034;-75
2023/05/08 09:13:35;;;;;;;15.18;9.82;;;13.10;99.90;;;;;;5007854;28;20053;-74
2023/05/08 09:16:01;;;;;;;13.45;9.02;;;13.10;99.90;;;;;;5009837;28;20030;-74
2023/05/08 09:18:26;;;;;;;16.67;10.40;;;13.00;99.90;;;;;;5007962;28;20042;-74
2023/05/08 09:20:52;;;;;;;15.27;10.07;;;13.00;99.90;;;;;;5007438;28;20026;-74
2023/05/08 09:23:18;;;;;;;14.35;9.50;;;13.00;99.90;;;;;;5012200;28;20050;-74
2023/05/08 09:25:47;;;;;;;16.90;10.30;;;13.00;99.90;;;;;;5008265;28;20038;-75
2023/05/08 09:28:21;;;;;;;16.83;10.52;;;13.00;99.90;;;;;;5009965;28;20026;-74
2023/05/08 09:30:49;;;;;;;17.15;11.05;;;13.10;99.90;;;;;;5006154;28;20038;-75
2023/05/08 09:33:15;;;;;;;17.80;10.45;;;13.20;99.90;;;;;;4992263;28;20394;-74
2023/05/08 09:35:40;;;;;;;16.38;10.57;;;13.30;99.90;;;;;;5007033;28;20038;-74
2023/05/08 09:38:06;;;;;;;16.30;10.77;;;13.40;99.90;;;;;;4991779;28;20034;-74
2023/05/08 09:40:31;;;;;;;14.38;9.70;;;13.50;99.90;;;;;;4987471;28;20026;-73
2023/05/08 09:43:10;;;;;;;16.88;11.40;;;13.60;99.90;;;;;;4991665;28;20034;-74
2023/05/08 09:45:37;;;;;;;;;;;13.70;99.90;;;;;;4988571;28;20047;-74
2023/05/08 09:48:03;;;;;;;15.13;10.43;;;13.70;99.90;;;;;;4991648;28;19924;-74
2023/05/08 09:50:30;;;;;;;15.20;10.25;;;13.80;99.90;;;;;;4990901;28;20034;-74
2023/05/08 09:52:56;;;;;;;17.27;10.70;;;13.80;99.90;;;;;;4989236;28;20031;-75
2023/05/08 09:55:21;;;;;;;18.08;11.13;;;13.80;99.90;;;;;;4989395;28;20080;-75
2023/05/08 09:57:58;;;;;;;15.93;10.20;;;13.90;99.90;;;;;;4989165;28;20031;-74
2023/05/08 10:00:26;;;;;;;14.95;9.43;;;13.80;99.90;;;;;;4990137;28;20034;-75
2023/05/08 10:02:58;;;;;;;15.25;10.23;;;13.90;99.90;;;;;;4990612;28;20038;-74
2023/05/08 10:05:30;;;;;;;15.32;10.23;;;13.90;99.90;;;;;;4989315;28;20823;-74
2023/05/08 10:07:57;;;;;;;18.40;10.95;;;13.90;99.90;;;;;;4990835;28;20129;-74
2023/05/08 10:10:29;;;;;;;16.88;10.38;;;14.00;99.90;;;;;;4983858;28;20031;-75
2023/05/08 10:12:56;;;;;;;17.15;10.98;;;14.00;99.90;;;;;;4990772;28;20786;-75
2023/05/08 10:15:27;;;;;;;13.73;9.73;;;14.10;99.90;;;;;;4985900;28;20117;-75
2023/05/08 10:18:07;;;;;;;16.98;10.60;;;14.10;99.90;;;;;;4992391;28;20145;-76
2023/05/08 10:20:34;;;;;;;16.60;10.95;;;14.20;99.90;;;;;;4986960;28;20045;-74
2023/05/08 10:23:02;;;;;;;15.70;9.80;;;14.10;99.90;;;;;;4992314;28;20088;-75
2023/05/08 10:25:32;;;;;;;17.97;10.87;;;14.10;99.90;;;;;;4991671;28;20711;-75
2023/05/08 10:28:30;;;;;;;15.35;10.80;;;14.10;99.90;;;;;;4991103;28;20125;-77
2023/05/08 10:31:00;;;;;;;15.45;9.65;;;14.10;99.90;;;;;;4987818;28;20038;-74
2023/05/08 10:33:32;;;;;;;15.25;10.52;;;14.10;99.90;;;;;;4988285;28;20043;-76
2023/05/08 10:35:59;;;;;;;18.38;11.75;;;14.10;99.90;;;;;;4990937;28;20038;-75
2023/05/08 10:38:25;;;;;;;16.98;11.25;;;14.10;99.90;;;;;;4989880;28;20073;-75
2023/05/08 10:40:56;;;;;;;19.33;11.90;;;14.20;99.90;;;;;;4983032;28;20566;-76
2023/05/08 10:43:27;;;;;;;16.67;10.32;;;14.10;99.90;;;;;;4988768;28;20129;-79
2023/05/08 10:45:54;;;;;;;16.13;10.57;;;14.20;99.90;;;;;;4988017;28;20113;-77
2023/05/08 10:48:26;;;;;;;16.67;10.23;;;14.20;99.90;;;;;;4989873;28;20190;-76
2023/05/08 10:51:01;;;;;;;18.98;11.15;;;14.30;99.90;;;;;;4988287;28;20031;-74
2023/05/08 10:53:52;;;;;;;17.70;10.88;;;14.40;99.90;;;;;;4992134;28;20458;-76
2023/05/08 10:56:25;;;;;;;15.15;10.57;;;14.50;99.90;;;;;;4988042;28;20656;-75
2023/05/08 10:58:55;;;;;;;19.75;10.88;;;14.60;99.90;;;;;;4993703;28;20030;-76
2023/05/08 11:01:20;;;;;;;18.08;12.45;;;14.80;99.90;;;;;;4987987;28;20046;-76
2023/05/08 11:03:51;;;;;;;15.77;11.48;;;14.90;99.90;;;;;;4991036;28;20042;-76
2023/05/08 11:06:37;;;;;;;17.92;12.10;;;15.00;99.90;;;;;;4989215;28;20471;-76
2023/05/08 11:09:02;;;;;;;18.13;11.93;;;14.90;99.90;;;;;;4993633;28;20031;-75
2023/05/08 11:11:33;;;;;;;17.42;11.70;;;14.90;99.90;;;;;;4995874;28;20121;-77
2023/05/08 11:14:20;;;;;;;18.60;12.13;;;15.10;99.90;;;;;;4991862;28;20058;-77
2023/05/08 11:17:00;;;;;;;17.60;11.65;;;15.30;99.90;;;;;;4992759;28;20030;-75
2023/05/08 11:19:27;;;;;;;21.13;13.13;;;15.40;99.90;;;;;;4994873;28;20094;-75
2023/05/08 11:22:18;;;;;;;18.00;12.02;;;15.50;99.90;;;;;;4994754;28;20038;-75
2023/05/08 11:24:58;;;;;;;18.65;11.55;;;15.80;99.90;;;;;;4995655;28;20046;-75
2023/05/08 11:28:02;;;;;;;19.23;12.65;;;15.70;99.90;;;;;;4991358;28;20030;-75
2023/05/08 11:30:38;;;;;;;16.42;11.52;;;15.60;99.90;;;;;;4995053;28;20113;-75
2023/05/08 11:33:03;;;;;;;16.77;11.35;;;15.60;99.90;;;;;;4992286;28;20066;-74
2023/05/08 11:35:58;;;;;;;18.80;11.63;;;15.70;99.90;;;;;;4991187;28;20453;-75
2023/05/08 11:38:34;;;;;;;18.27;12.70;;;15.90;99.90;;;;;;4989988;28;20422;-75
2023/05/08 11:41:04;;;;;;;17.30;11.65;;;15.80;99.90;;;;;;4990286;28;20034;-76
2023/05/08 11:43:32;;;;;;;21.33;12.88;;;15.90;99.90;;;;;;4991898;28;20069;-75
2023/05/08 11:46:05;;;;;;;21.05;13.55;;;15.80;99.90;;;;;;4993988;28;20037;-75
2023/05/08 11:48:32;;;;;;;19.55;12.32;;;15.70;99.90;;;;;;4994142;28;20042;-76
2023/05/08 11:50:59;;;;;;;18.00;12.77;;;15.70;99.90;;;;;;4992943;28;20030;-75
2023/05/08 11:53:25;;;;;;;19.13;13.45;;;15.70;99.90;;;;;;4996331;28;20042;-74
2023/05/08 11:55:54;;;;;;;19.85;12.77;;;15.60;99.90;;;;;;4996854;28;20109;-76
2023/05/08 11:58:20;;;;;;;19.88;13.30;;;15.70;99.90;;;;;;4992823;28;20058;-75
2023/05/08 12:00:47;;;;;;;20.50;12.65;;;15.70;99.90;;;;;;4993206;28;20043;-75
2023/05/08 12:03:15;;;;;;;17.90;11.93;;;15.90;99.90;;;;;;4994254;28;20050;-76
2023/05/08 12:05:41;;;;;;;17.83;12.02;;;15.90;99.90;;;;;;4991463;28;20042;-75
2023/05/08 12:08:08;;;;;;;19.10;12.55;;;16.00;99.90;;;;;;4995516;28;20080;-77
2023/05/08 12:10:45;;;;;;;19.40;12.63;;;16.10;99.90;;;;;;4992673;28;20121;-76
2023/05/08 12:13:19;;;;;;;20.70;13.25;;;16.10;99.90;;;;;;4993820;28;20039;-75
2023/05/08 12:15:50;;;;;;;18.67;12.13;;;16.20;99.90;;;;;;4993087;28;20069;-76
2023/05/08 12:18:16;;;;;;;19.52;12.07;;;16.10;99.90;;;;;;4994641;28;20030;-76
2023/05/08 12:20:42;;;;;;;19.83;11.88;;;16.10;99.90;;;;;;4993343;28;20413;-76
2023/05/08 12:23:09;;;;;;;16.30;11.65;;;16.20;99.90;;;;;;4996193;28;20034;-76
2023/05/08 12:25:39;;;;;;;15.52;10.38;;;16.30;99.90;;;;;;4992711;28;20038;-76
2023/05/08 12:28:11;;;;;;;18.02;11.93;;;16.40;99.90;;;;;;4994807;28;20767;-77
2023/05/08 12:30:37;;;;;;;15.93;11.20;;;16.50;99.90;;;;;;4991661;28;20045;-76
2023/05/08 12:33:06;;;;;;;16.77;11.52;;;16.40;99.90;;;;;;4990819;28;20026;-77
2023/05/08 12:35:32;;;;;;;16.38;10.93;;;16.50;99.90;;;;;;4994795;28;20165;-77
2023/05/08 12:38:02;;;;;;;15.05;11.15;;;16.40;99.90;;;;;;4991494;28;20045;-77
2023/05/08 12:40:32;;;;;;;21.33;15.13;;;16.50;99.90;;;;;;4993901;28;20048;-77
2023/05/08 12:43:02;;;;;;;17.08;11.98;;;16.50;99.90;;;;;;4994349;28;20038;-77
2023/05/08 12:45:51;;;;;;;16.73;11.50;;;16.40;99.90;;;;;;4988705;28;20049;-76
2023/05/08 12:48:17;;;;;;;17.30;11.57;;;16.20;99.90;;;;;;4993729;28;20315;-76